createdAt,value
2022-08-20T00:01:58.659Z,15.53
2022-08-20T00:04:43.725Z,15.57
2022-08-20T00:07:29.132Z,15.62
2022-08-20T00:10:14.463Z,15.61
2022-08-20T00:12:59.867Z,15.56
2022-08-20T00:15:45.518Z,15.55
2022-08-20T00:18:30.554Z,15.58
2022-08-20T00:21:18.897Z,15.60
2022-08-20T00:24:04.734Z,15.62
2022-08-20T00:26:52.708Z,15.64
2022-08-20T00:29:38.246Z,15.65
2022-08-20T00:32:23.451Z,15.65
2022-08-20T00:35:08.789Z,15.66
2022-08-20T00:38:00.709Z,15.65
2022-08-20T00:40:50.847Z,15.64
2022-08-20T00:43:41.770Z,15.63
2022-08-20T00:46:31.822Z,15.63
2022-08-20T00:49:28.498Z,15.63
2022-08-20T00:52:15.470Z,15.61
2022-08-20T00:55:02.977Z,15.61
2022-08-20T00:58:01.112Z,15.60
2022-08-20T01:00:49.021Z,15.57
2022-08-20T01:03:34.479Z,15.57
2022-08-20T01:06:19.902Z,15.55
2022-08-20T01:09:06.302Z,15.52
2022-08-20T01:11:51.566Z,15.49
2022-08-20T01:14:43.021Z,15.49
2022-08-20T01:17:32.297Z,15.44
2022-08-20T01:20:25.907Z,15.40
2022-08-20T01:23:29.848Z,15.40
2022-08-20T01:26:20.671Z,15.39
2022-08-20T01:29:14.096Z,15.38
2022-08-20T01:32:00.915Z,15.35
2022-08-20T01:34:45.765Z,15.32
2022-08-20T01:37:31.449Z,15.31
2022-08-20T01:40:33.658Z,15.28
2022-08-20T01:43:19.138Z,15.24
2022-08-20T01:46:07.725Z,15.21
2022-08-20T01:48:54.088Z,15.23
2022-08-20T01:51:39.072Z,15.22
2022-08-20T01:54:25.782Z,15.22
2022-08-20T01:57:17.093Z,15.19
2022-08-20T02:00:08.065Z,15.17
2022-08-20T02:02:55.885Z,15.16
2022-08-20T02:05:41.529Z,15.13
2022-08-20T02:08:26.658Z,15.09
2022-08-20T02:11:12.386Z,15.06
2022-08-20T02:13:58.223Z,15.04
2022-08-20T02:16:54.810Z,15.02
2022-08-20T02:19:46.310Z,15.01
2022-08-20T02:22:34.416Z,15.00
2022-08-20T02:25:23.214Z,14.97
2022-08-20T02:28:11.466Z,14.92
2022-08-20T02:30:56.721Z,14.88
2022-08-20T02:33:42.015Z,14.83
2022-08-20T02:36:48.820Z,14.82
2022-08-20T02:39:34.428Z,14.78
2022-08-20T02:42:20.104Z,14.75
2022-08-20T02:45:05.695Z,14.75
2022-08-20T02:47:53.634Z,14.75
2022-08-20T02:50:43.339Z,14.74
2022-08-20T02:53:30.422Z,14.72
2022-08-20T02:56:16.195Z,14.69
2022-08-20T02:59:02.180Z,14.67
2022-08-20T03:01:47.908Z,14.67
2022-08-20T03:04:44.981Z,14.63
2022-08-20T03:07:29.957Z,14.64
2022-08-20T03:10:15.927Z,14.66
2022-08-20T03:13:02.130Z,14.71
2022-08-20T03:15:53.241Z,14.75
2022-08-20T03:18:43.498Z,14.78
2022-08-20T03:21:28.839Z,14.80
2022-08-20T03:24:13.842Z,14.88
2022-08-20T03:26:59.107Z,14.86
2022-08-20T03:29:43.677Z,14.82
2022-08-20T03:32:28.476Z,14.86
2022-08-20T03:35:16.389Z,14.94
2022-08-20T03:38:05.505Z,15.11
2022-08-20T03:40:50.906Z,15.35
2022-08-20T03:43:37.033Z,15.62
2022-08-20T03:46:24.014Z,15.86
2022-08-20T03:49:09.236Z,16.11
2022-08-20T03:51:57.984Z,16.39
2022-08-20T03:54:47.077Z,16.69
2022-08-20T03:57:32.195Z,16.96
2022-08-20T04:00:21.954Z,17.27
2022-08-20T04:03:08.376Z,17.56
2022-08-20T04:05:53.615Z,17.84
2022-08-20T04:08:40.498Z,18.11
2022-08-20T04:11:25.257Z,18.40
2022-08-20T04:14:11.605Z,18.69
2022-08-20T04:17:07.375Z,18.99
2022-08-20T04:19:52.839Z,19.27
2022-08-20T04:22:38.208Z,19.50
2022-08-20T04:25:23.988Z,19.75
2022-08-20T04:28:16.709Z,19.86
2022-08-20T04:31:01.827Z,19.62
2022-08-20T04:33:46.892Z,19.39
2022-08-20T04:36:31.931Z,19.43
2022-08-20T04:39:18.084Z,19.59
2022-08-20T04:42:02.993Z,19.66
2022-08-20T04:44:47.960Z,19.85
2022-08-20T04:47:34.731Z,20.19
2022-08-20T04:50:20.920Z,20.51
2022-08-20T04:53:09.531Z,20.85
2022-08-20T04:55:57.644Z,21.17
2022-08-20T04:58:47.209Z,21.47
2022-08-20T05:01:32.619Z,21.73
2022-08-20T05:04:17.937Z,21.91
2022-08-20T05:07:02.871Z,22.06
2022-08-20T05:09:47.664Z,22.16
2022-08-20T05:12:32.769Z,22.36
2022-08-20T05:15:17.920Z,22.50
2022-08-20T05:18:05.256Z,22.70
2022-08-20T05:20:50.759Z,22.88
2022-08-20T05:23:42.275Z,23.02
2022-08-20T05:26:27.575Z,23.12
2022-08-20T05:29:12.995Z,23.19
2022-08-20T05:31:58.249Z,23.07
2022-08-20T05:34:43.543Z,23.05
2022-08-20T05:37:29.644Z,23.10
2022-08-20T05:40:17.921Z,23.28
2022-08-20T05:43:04.246Z,23.52
2022-08-20T05:45:56.394Z,23.50
2022-08-20T05:48:41.548Z,23.27
2022-08-20T05:51:28.155Z,23.10
2022-08-20T05:54:14.968Z,23.13
2022-08-20T05:56:59.603Z,23.38
2022-08-20T05:59:44.905Z,23.81
2022-08-20T06:02:48.769Z,24.11
2022-08-20T06:05:34.208Z,24.52
2022-08-20T06:08:19.124Z,24.78
2022-08-20T06:11:04.797Z,24.86
2022-08-20T06:13:50.056Z,24.81
2022-08-20T06:16:35.015Z,24.89
2022-08-20T06:19:26.173Z,24.64
2022-08-20T06:22:18.006Z,24.31
2022-08-20T06:25:07.273Z,24.17
2022-08-20T06:27:52.538Z,24.16
2022-08-20T06:30:38.198Z,24.20
2022-08-20T06:33:23.440Z,24.39
2022-08-20T06:36:08.701Z,24.54
2022-08-20T06:38:55.577Z,24.71
2022-08-20T06:41:41.200Z,24.88
2022-08-20T06:44:27.905Z,25.14
2022-08-20T06:47:14.777Z,25.40
2022-08-20T06:49:59.880Z,25.63
2022-08-20T06:52:51.972Z,25.84
2022-08-20T06:55:51.362Z,26.06
2022-08-20T06:58:38.828Z,26.29
2022-08-20T07:01:23.946Z,26.47
2022-08-20T07:04:08.720Z,26.29
2022-08-20T07:06:56.958Z,26.24
2022-08-20T07:09:41.804Z,26.23
2022-08-20T07:12:26.887Z,26.43
2022-08-20T07:15:13.337Z,26.23
2022-08-20T07:18:01.781Z,26.37
2022-08-20T07:20:47.108Z,26.70
2022-08-20T07:23:32.640Z,26.99
2022-08-20T07:26:17.892Z,27.08
2022-08-20T07:29:03.572Z,26.65
2022-08-20T07:32:06.764Z,26.21
2022-08-20T07:34:54.725Z,25.90
2022-08-20T07:37:42.600Z,26.00
2022-08-20T07:40:33.159Z,25.54
2022-08-20T07:43:18.720Z,25.60
2022-08-20T07:46:08.575Z,25.59
2022-08-20T07:48:53.827Z,25.55
2022-08-20T07:51:39.828Z,25.80
2022-08-20T07:54:24.497Z,26.59
2022-08-20T07:57:11.039Z,27.33
2022-08-20T07:59:58.582Z,28.17
2022-08-20T08:02:43.472Z,28.58
2022-08-20T08:05:29.654Z,28.68
2022-08-20T08:08:25.192Z,28.66
2022-08-20T08:11:10.870Z,28.09
2022-08-20T08:13:59.338Z,27.60
2022-08-20T08:16:45.254Z,27.11
2022-08-20T08:19:35.670Z,26.90
2022-08-20T08:22:20.333Z,26.86
2022-08-20T08:25:05.842Z,26.84
2022-08-20T08:27:50.618Z,26.74
2022-08-20T08:30:36.010Z,26.70
2022-08-20T08:33:28.807Z,26.73
2022-08-20T08:36:15.555Z,26.91
2022-08-20T08:39:00.479Z,27.06
2022-08-20T08:41:49.443Z,27.21
2022-08-20T08:44:39.546Z,27.30
2022-08-20T08:47:34.040Z,27.50
2022-08-20T08:50:49.974Z,27.68
2022-08-20T08:53:38.591Z,28.03
2022-08-20T08:56:26.813Z,27.37
2022-08-20T08:59:11.676Z,27.26
2022-08-20T09:02:01.319Z,26.92
2022-08-20T09:04:46.808Z,26.82
2022-08-20T09:07:32.908Z,26.60
2022-08-20T09:10:23.310Z,26.33
2022-08-20T09:13:08.493Z,26.55
2022-08-20T09:15:53.308Z,26.60
2022-08-20T09:18:39.551Z,26.92
2022-08-20T09:21:24.409Z,27.09
2022-08-20T09:24:09.478Z,27.38
2022-08-20T09:26:54.425Z,27.80
2022-08-20T09:29:39.729Z,28.40
2022-08-20T09:32:25.555Z,28.96
2022-08-20T09:35:12.740Z,29.49
2022-08-20T09:37:58.448Z,30.24
2022-08-20T09:40:44.074Z,30.09
2022-08-20T09:43:29.252Z,29.52
2022-08-20T09:46:14.644Z,28.88
2022-08-20T09:48:59.872Z,28.84
2022-08-20T09:51:44.652Z,29.14
2022-08-20T09:54:33.140Z,29.98
2022-08-20T09:57:18.530Z,30.56
2022-08-20T10:00:09.193Z,30.82
2022-08-20T10:02:57.603Z,30.98
2022-08-20T10:05:43.294Z,31.17
2022-08-20T10:08:28.265Z,31.28
2022-08-20T10:11:13.905Z,31.13
2022-08-20T10:13:58.913Z,31.25
2022-08-20T10:16:44.402Z,31.47
2022-08-20T10:19:30.753Z,31.28
2022-08-20T10:22:15.606Z,31.05
2022-08-20T10:25:00.784Z,31.03
2022-08-20T10:27:46.101Z,30.94
2022-08-20T10:30:31.380Z,31.11
2022-08-20T10:33:16.057Z,31.19
2022-08-20T10:36:10.126Z,31.14
2022-08-20T10:38:55.780Z,30.86
2022-08-20T10:41:41.145Z,30.94
2022-08-20T10:44:26.297Z,30.79
2022-08-20T10:47:22.736Z,31.09
2022-08-20T10:50:12.123Z,31.49
2022-08-20T10:52:57.476Z,31.62
2022-08-20T10:55:43.196Z,31.81
2022-08-20T10:58:37.575Z,31.98
2022-08-20T11:01:32.775Z,32.22
2022-08-20T11:04:19.122Z,31.85
2022-08-20T11:07:14.571Z,31.21
2022-08-20T11:10:00.455Z,30.70
2022-08-20T11:12:46.350Z,30.24
2022-08-20T11:15:37.152Z,29.60
2022-08-20T11:18:22.266Z,29.50
2022-08-20T11:21:07.467Z,29.63
2022-08-20T11:23:53.909Z,29.71
2022-08-20T11:26:38.934Z,30.09
2022-08-20T11:29:24.613Z,30.09
2022-08-20T11:32:09.797Z,30.24
2022-08-20T11:34:55.400Z,30.67
2022-08-20T11:37:41.071Z,31.12
2022-08-20T11:40:27.694Z,31.50
2022-08-20T11:43:15.600Z,31.05
2022-08-20T11:46:01.279Z,30.27
2022-08-20T11:48:46.228Z,29.91
2022-08-20T11:51:31.101Z,30.21
2022-08-20T11:54:34.635Z,30.99
2022-08-20T11:57:26.690Z,31.07
2022-08-20T12:00:20.931Z,31.03
2022-08-20T12:03:17.458Z,30.72
2022-08-20T12:06:02.305Z,30.38
2022-08-20T12:08:47.074Z,30.07
2022-08-20T12:11:32.084Z,30.26
2022-08-20T12:14:16.934Z,31.24
2022-08-20T12:17:19.169Z,32.26
2022-08-20T12:20:08.458Z,34.46
2022-08-20T12:22:53.647Z,35.29
2022-08-20T12:25:39.027Z,35.13
2022-08-20T12:28:26.061Z,34.36
2022-08-20T12:31:11.051Z,33.14
2022-08-20T12:33:56.687Z,32.14
2022-08-20T12:36:41.574Z,31.14
2022-08-20T12:39:26.703Z,30.57
2022-08-20T12:42:12.208Z,30.26
2022-08-20T12:44:58.366Z,29.99
2022-08-20T12:47:45.630Z,29.84
2022-08-20T12:50:31.870Z,29.59
2022-08-20T12:53:17.197Z,29.43
2022-08-20T12:56:04.487Z,29.31
2022-08-20T12:58:49.695Z,29.27
2022-08-20T13:01:34.544Z,29.14
2022-08-20T13:04:20.278Z,28.90
2022-08-20T13:07:05.832Z,28.51
2022-08-20T13:09:54.426Z,28.13
2022-08-20T13:12:39.567Z,27.68
2022-08-20T13:15:24.943Z,27.45
2022-08-20T13:18:10.044Z,27.18
2022-08-20T13:20:54.950Z,27.01
2022-08-20T13:23:40.293Z,27.00
2022-08-20T13:26:25.529Z,26.93
2022-08-20T13:29:10.856Z,26.90
2022-08-20T13:31:56.202Z,26.86
2022-08-20T13:34:41.600Z,26.94
2022-08-20T13:37:27.932Z,26.91
2022-08-20T13:40:13.160Z,26.88
2022-08-20T13:43:03.142Z,27.03
2022-08-20T13:45:51.123Z,27.01
2022-08-20T13:48:36.036Z,27.05
2022-08-20T13:51:21.679Z,27.16
2022-08-20T13:54:06.890Z,27.28
2022-08-20T13:57:09.215Z,27.35
2022-08-20T13:59:57.310Z,27.31
2022-08-20T14:02:42.995Z,27.14
2022-08-20T14:05:29.250Z,26.93
2022-08-20T14:08:20.776Z,26.85
2022-08-20T14:11:05.967Z,26.80
2022-08-20T14:13:50.802Z,26.63
2022-08-20T14:16:37.663Z,26.48
2022-08-20T14:19:22.944Z,26.18
2022-08-20T14:22:07.898Z,25.87
2022-08-20T14:24:53.373Z,25.49
2022-08-20T14:27:38.697Z,25.25
2022-08-20T14:30:29.753Z,25.05
2022-08-20T14:33:15.216Z,24.88
2022-08-20T14:36:00.172Z,24.79
2022-08-20T14:38:45.353Z,24.68
2022-08-20T14:41:30.023Z,24.59
2022-08-20T14:44:15.234Z,24.46
2022-08-20T14:47:13.523Z,24.34
2022-08-20T14:50:02.995Z,24.19
2022-08-20T14:52:49.717Z,24.05
2022-08-20T14:55:36.953Z,23.94
2022-08-20T14:58:22.150Z,23.83
2022-08-20T15:01:07.672Z,23.76
2022-08-20T15:03:53.024Z,23.72
2022-08-20T15:06:38.244Z,23.74
2022-08-20T15:09:23.714Z,23.70
2022-08-20T15:12:08.709Z,23.64
2022-08-20T15:14:54.110Z,23.55
2022-08-20T15:17:44.437Z,23.49
2022-08-20T15:20:33.041Z,23.37
2022-08-20T15:23:18.272Z,23.27
2022-08-20T15:26:04.935Z,23.21
2022-08-20T15:28:50.158Z,23.05
2022-08-20T15:31:35.640Z,22.93
2022-08-20T15:34:20.477Z,22.82
2022-08-20T15:37:13.230Z,22.73
2022-08-20T15:40:06.997Z,22.70
2022-08-20T15:42:52.402Z,22.61
2022-08-20T15:45:37.423Z,22.54
2022-08-20T15:48:32.620Z,22.49
2022-08-20T15:51:29.458Z,22.43
2022-08-20T15:54:19.589Z,22.43
2022-08-20T15:57:39.003Z,22.43
2022-08-20T16:00:28.790Z,22.37
2022-08-20T16:03:46.120Z,22.37
2022-08-20T16:06:32.874Z,22.31
2022-08-20T16:09:54.946Z,22.30
2022-08-20T16:12:43.414Z,22.28
2022-08-20T16:15:35.175Z,22.26
2022-08-20T16:18:24.644Z,22.23
2022-08-20T16:21:13.203Z,22.24
2022-08-20T16:23:58.576Z,22.20
2022-08-20T16:26:52.864Z,22.15
2022-08-20T16:29:57.989Z,22.04
2022-08-20T16:32:47.268Z,21.96
2022-08-20T16:35:41.980Z,21.85
2022-08-20T16:38:48.921Z,21.75
2022-08-20T16:41:45.478Z,21.62
2022-08-20T16:44:41.721Z,21.51
2022-08-20T16:47:33.288Z,21.43
2022-08-20T16:50:30.852Z,21.38
2022-08-20T16:53:20.900Z,21.32
2022-08-20T16:56:05.652Z,21.26
2022-08-20T16:58:50.493Z,21.18
2022-08-20T17:01:36.200Z,21.15
2022-08-20T17:04:22.732Z,21.07
2022-08-20T17:07:07.634Z,21.01
2022-08-20T17:10:31.838Z,20.96
2022-08-20T17:13:17.124Z,20.91
2022-08-20T17:16:14.641Z,20.87
2022-08-20T17:19:11.268Z,20.81
2022-08-20T17:22:08.386Z,20.78
2022-08-20T17:24:54.334Z,20.72
2022-08-20T17:27:40.907Z,20.69
2022-08-20T17:30:36.184Z,20.64
2022-08-20T17:33:21.155Z,20.62
2022-08-20T17:36:21.769Z,20.59
2022-08-20T17:39:16.158Z,20.55
2022-08-20T17:42:14.975Z,20.50
2022-08-20T17:45:12.027Z,20.50
2022-08-20T17:47:59.444Z,20.48
2022-08-20T17:50:44.473Z,20.48
2022-08-20T17:53:33.555Z,20.44
2022-08-20T17:56:25.962Z,20.43
2022-08-20T17:59:23.985Z,20.43
2022-08-20T18:02:19.285Z,20.40
2022-08-20T18:05:19.873Z,20.39
2022-08-20T18:08:36.771Z,20.36
2022-08-20T18:11:49.016Z,20.34
2022-08-20T18:14:52.576Z,20.31
2022-08-20T18:17:40.549Z,20.30
2022-08-20T18:20:59.694Z,20.27
2022-08-20T18:23:55.845Z,20.20
2022-08-20T18:26:43.787Z,20.18
2022-08-20T18:29:36.508Z,20.14
2022-08-20T18:32:30.257Z,20.10
2022-08-20T18:35:39.079Z,20.10
2022-08-20T18:38:34.049Z,20.08
2022-08-20T18:41:29.898Z,20.03
2022-08-20T18:44:38.024Z,20.01
2022-08-20T18:47:29.369Z,19.99
2022-08-20T18:50:17.855Z,19.98
2022-08-20T18:53:29.166Z,19.98
2022-08-20T18:56:17.147Z,19.95
2022-08-20T18:59:12.502Z,19.93
2022-08-20T19:01:57.371Z,19.93
2022-08-20T19:04:47.592Z,19.92
2022-08-20T19:07:48.866Z,19.91
2022-08-20T19:10:39.381Z,19.87
2022-08-20T19:13:54.667Z,19.85
2022-08-20T19:17:00.664Z,19.82
2022-08-20T19:19:46.640Z,19.77
2022-08-20T19:22:34.152Z,19.77
2022-08-20T19:25:30.056Z,19.71
2022-08-20T19:28:29.501Z,19.72
2022-08-20T19:31:27.438Z,19.70
2022-08-20T19:34:22.622Z,19.67
2022-08-20T19:37:34.803Z,19.63
2022-08-20T19:40:39.206Z,19.61
2022-08-20T19:43:25.287Z,19.61
2022-08-20T19:46:10.247Z,19.60
2022-08-20T19:49:26.863Z,19.59
2022-08-20T19:52:29.481Z,19.58
2022-08-20T19:55:37.239Z,19.56
2022-08-20T19:58:26.562Z,19.54
2022-08-20T20:01:19.778Z,19.58
2022-08-20T20:04:06.511Z,19.58
2022-08-20T20:06:52.269Z,19.57
2022-08-20T20:09:41.350Z,19.56
2022-08-20T20:12:26.241Z,19.56
2022-08-20T20:15:11.201Z,19.53
2022-08-20T20:17:58.985Z,19.48
2022-08-20T20:20:57.065Z,19.46
2022-08-20T20:23:53.412Z,19.40
2022-08-20T20:26:40.654Z,19.37
2022-08-20T20:29:33.060Z,19.35
2022-08-20T20:32:23.950Z,19.32
2022-08-20T20:35:09.381Z,19.30
2022-08-20T20:38:01.544Z,19.28
2022-08-20T20:40:52.295Z,19.26
2022-08-20T20:43:41.719Z,19.26
2022-08-20T20:46:28.593Z,19.24
2022-08-20T20:49:13.257Z,19.23
2022-08-20T20:52:03.452Z,19.24
2022-08-20T20:54:48.540Z,19.22
2022-08-20T20:57:38.548Z,19.20
2022-08-20T21:00:26.800Z,19.17
2022-08-20T21:03:12.228Z,19.14
2022-08-20T21:05:57.294Z,19.15
2022-08-20T21:08:42.718Z,19.12
2022-08-20T21:11:27.641Z,19.12
2022-08-20T21:14:12.933Z,19.10
2022-08-20T21:17:01.001Z,19.08
2022-08-20T21:19:48.179Z,19.05
2022-08-20T21:22:33.202Z,19.03
2022-08-20T21:25:20.912Z,19.02
2022-08-20T21:28:07.453Z,19.01
2022-08-20T21:30:58.355Z,19.01
2022-08-20T21:33:44.009Z,18.99
2022-08-20T21:36:29.461Z,18.98
2022-08-20T21:39:14.328Z,18.95
2022-08-20T21:42:01.948Z,18.94
2022-08-20T21:44:49.705Z,18.92
2022-08-20T21:47:35.795Z,18.89
2022-08-20T21:50:21.126Z,18.87
2022-08-20T21:53:12.415Z,18.83
2022-08-20T21:56:00.041Z,18.81
2022-08-20T21:58:48.800Z,18.80
2022-08-20T22:01:35.083Z,18.76
2022-08-20T22:04:20.253Z,18.77
2022-08-20T22:07:05.959Z,18.77
2022-08-20T22:09:50.884Z,18.75
2022-08-20T22:12:36.016Z,18.75
2022-08-20T22:15:20.920Z,18.74
2022-08-20T22:18:06.286Z,18.73
2022-08-20T22:20:52.133Z,18.73
2022-08-20T22:23:39.507Z,18.74
2022-08-20T22:26:27.362Z,18.70
2022-08-20T22:29:12.422Z,18.70
2022-08-20T22:31:57.721Z,18.70
2022-08-20T22:34:43.081Z,18.69
2022-08-20T22:37:31.101Z,18.66
2022-08-20T22:40:19.968Z,18.66
2022-08-20T22:43:05.194Z,18.65
2022-08-20T22:45:53.555Z,18.66
2022-08-20T22:48:38.375Z,18.65
2022-08-20T22:51:28.489Z,18.67
2022-08-20T22:54:20.329Z,18.66
2022-08-20T22:57:05.648Z,18.65
2022-08-20T22:59:53.983Z,18.67
2022-08-20T23:02:41.961Z,18.65
2022-08-20T23:05:29.973Z,18.64
2022-08-20T23:08:15.628Z,18.65
2022-08-20T23:11:00.845Z,18.66
2022-08-20T23:13:46.101Z,18.65
2022-08-20T23:16:30.985Z,18.65
2022-08-20T23:19:23.911Z,18.65
2022-08-20T23:22:09.321Z,18.66
2022-08-20T23:24:59.876Z,18.63
2022-08-20T23:27:51.072Z,18.63
2022-08-20T23:30:36.592Z,18.60
2022-08-20T23:33:21.588Z,18.59
2022-08-20T23:36:09.863Z,18.59
2022-08-20T23:38:55.335Z,18.56
2022-08-20T23:41:47.804Z,18.58
2022-08-20T23:44:33.213Z,18.55
2022-08-20T23:47:20.827Z,18.55
2022-08-20T23:50:09.037Z,18.53
2022-08-20T23:52:55.609Z,18.53
2022-08-20T23:55:40.604Z,18.51
2022-08-20T23:58:25.859Z,18.50
